Time;durP1;ratioP1;P1;durP2;ratioP2;P2;SDS_P1;SDS_P2;PMS_P1;PMS_P2;Temp;Humidity;BMP_temperature;BMP_pressure;BME280_temperature;BME280_humidity;BME280_pressure;Samples;Min_cycle;Max_cycle;Signal;HPM_P1;HPM_P2
2022/03/25 00:00:06;;;;;;;62.55;38.25;;;6.60;99.90;;;;;;5035387;28;20364;-70
2022/03/25 00:02:34;;;;;;;59.72;40.17;;;6.50;99.90;;;;;;5021456;28;20683;-73
2022/03/25 00:05:02;;;;;;;65.30;40.45;;;6.50;99.90;;;;;;5024530;28;20206;-75
2022/03/25 00:07:30;;;;;;;59.33;39.35;;;6.50;99.90;;;;;;5019438;28;20207;-73
2022/03/25 00:09:58;;;;;;;71.03;39.78;;;6.40;99.90;;;;;;5031183;28;20805;-75
2022/03/25 00:12:28;;;;;;;60.53;37.55;;;6.40;99.90;;;;;;5034403;28;20603;-73
2022/03/25 00:14:56;;;;;;;67.05;38.42;;;6.40;99.90;;;;;;5029769;28;20214;-74
2022/03/25 00:17:24;;;;;;;64.80;38.40;;;6.30;99.90;;;;;;5020826;28;20666;-75
2022/03/25 00:19:52;;;;;;;64.55;38.17;;;6.30;99.90;;;;;;5026154;28;20618;-69
2022/03/25 00:22:20;;;;;;;58.53;36.90;;;6.30;99.90;;;;;;5023749;28;20210;-73
2022/03/25 00:24:48;;;;;;;60.72;40.38;;;6.30;99.90;;;;;;5020750;28;20770;-75
2022/03/25 00:27:17;;;;;;;65.20;38.08;;;6.30;99.90;;;;;;5022734;28;20219;-75
2022/03/25 00:29:46;;;;;;;67.30;38.88;;;6.20;99.90;;;;;;5038881;28;20778;-74
2022/03/25 00:32:16;;;;;;;59.50;37.13;;;6.20;99.90;;;;;;5042245;28;20243;-75
2022/03/25 00:34:44;;;;;;;66.80;39.17;;;6.20;99.90;;;;;;5034528;28;20685;-75
2022/03/25 00:37:12;;;;;;;63.25;38.65;;;6.10;99.90;;;;;;5020999;28;20293;-74
2022/03/25 00:39:40;;;;;;;61.28;38.80;;;6.10;99.90;;;;;;5020771;28;20347;-75
2022/03/25 00:42:09;;;;;;;65.20;38.70;;;6.10;99.90;;;;;;5020383;28;20771;-74
2022/03/25 00:44:37;;;;;;;59.47;36.60;;;6.10;99.90;;;;;;5020644;28;20252;-76
2022/03/25 00:47:06;;;;;;;62.90;39.90;;;6.10;99.90;;;;;;5020149;28;20793;-75
2022/03/25 00:49:35;;;;;;;68.18;40.60;;;6.10;99.90;;;;;;5020375;28;20230;-75
2022/03/25 00:52:04;;;;;;;61.85;38.85;;;6.00;99.90;;;;;;5020477;28;20198;-76
2022/03/25 00:54:32;;;;;;;58.28;39.28;;;6.00;99.90;;;;;;5020463;28;20621;-76
2022/03/25 00:57:02;;;;;;;62.15;40.67;;;6.00;99.90;;;;;;5020412;28;20744;-75
2022/03/25 00:59:30;;;;;;;66.60;40.78;;;6.00;99.90;;;;;;5020871;28;20198;-75
2022/03/25 01:01:59;;;;;;;66.50;38.92;;;5.90;99.90;;;;;;5035504;28;20371;-75
2022/03/25 01:04:29;;;;;;;67.57;40.30;;;6.00;99.90;;;;;;5040667;28;20229;-75
2022/03/25 01:06:57;;;;;;;63.25;39.15;;;5.90;99.90;;;;;;5040356;28;20443;-75
2022/03/25 01:09:25;;;;;;;62.58;39.60;;;5.90;99.90;;;;;;5035726;28;20285;-75
2022/03/25 01:11:53;;;;;;;65.00;39.60;;;5.90;99.90;;;;;;5025745;28;20229;-75
2022/03/25 01:14:20;;;;;;;64.90;39.83;;;5.80;99.90;;;;;;5049799;28;20213;-75
2022/03/25 01:16:49;;;;;;;71.53;39.58;;;5.80;99.90;;;;;;5056109;28;20486;-75
2022/03/25 01:19:17;;;;;;;60.42;39.53;;;5.80;99.90;;;;;;5055765;28;20405;-76
2022/03/25 01:21:46;;;;;;;61.35;38.53;;;5.80;99.90;;;;;;5041969;28;20234;-76
2022/03/25 01:24:14;;;;;;;63.55;37.80;;;5.70;99.90;;;;;;5022071;28;20483;-75
2022/03/25 01:26:43;;;;;;;64.97;40.60;;;5.70;99.90;;;;;;5020498;28;20260;-75
2022/03/25 01:29:12;;;;;;;69.70;40.25;;;5.70;99.90;;;;;;5019256;28;20436;-75
2022/03/25 01:31:41;;;;;;;66.70;39.53;;;5.60;99.90;;;;;;5020769;28;20288;-74
2022/03/25 01:34:11;;;;;;;64.25;40.00;;;5.70;99.90;;;;;;5020013;28;20406;-75
2022/03/25 01:36:41;;;;;;;71.50;40.40;;;5.60;99.90;;;;;;5028934;28;20433;-75
2022/03/25 01:39:11;;;;;;;70.07;41.28;;;5.60;99.90;;;;;;5039312;28;20237;-74
2022/03/25 01:41:38;;;;;;;64.68;40.08;;;5.60;99.90;;;;;;5038808;28;20283;-75
2022/03/25 01:44:09;;;;;;;64.25;38.72;;;5.60;99.90;;;;;;5040034;28;20635;-74
2022/03/25 01:46:37;;;;;;;70.18;41.50;;;5.60;99.90;;;;;;5039732;28;20202;-71
2022/03/25 01:49:05;;;;;;;69.85;41.78;;;5.60;99.90;;;;;;5039187;28;20210;-74
2022/03/25 01:51:35;;;;;;;63.40;38.25;;;5.60;99.90;;;;;;5039359;28;20221;-74
2022/03/25 01:54:16;;;;;;;72.68;41.40;;;5.60;99.90;;;;;;5038762;28;20568;-75
2022/03/25 01:56:46;;;;;;;67.60;41.45;;;5.60;99.90;;;;;;5038746;28;20209;-75
2022/03/25 01:59:14;;;;;;;59.70;39.78;;;5.50;99.90;;;;;;5038347;28;20252;-75
2022/03/25 02:01:42;;;;;;;63.45;39.58;;;5.50;99.90;;;;;;5038216;28;20226;-75
2022/03/25 02:04:11;;;;;;;65.25;40.15;;;5.50;99.90;;;;;;5038810;28;20225;-75
2022/03/25 02:06:39;;;;;;;65.40;38.17;;;5.50;99.90;;;;;;5038610;28;20403;-74
2022/03/25 02:09:06;;;;;;;62.97;38.17;;;5.50;99.90;;;;;;5038621;28;20248;-76
2022/03/25 02:11:35;;;;;;;71.45;41.63;;;5.50;99.90;;;;;;5038343;28;20275;-73
2022/03/25 02:14:04;;;;;;;67.05;39.33;;;5.40;99.90;;;;;;5038120;28;20274;-73
2022/03/25 02:16:36;;;;;;;70.82;39.90;;;5.40;99.90;;;;;;5022163;28;20226;-73
2022/03/25 02:19:05;;;;;;;66.88;38.63;;;5.40;99.90;;;;;;5018172;28;20561;-74
2022/03/25 02:21:35;;;;;;;63.67;40.30;;;5.40;99.90;;;;;;5017922;28;20886;-74
2022/03/25 02:24:03;;;;;;;63.88;38.72;;;5.40;99.90;;;;;;5018242;28;20229;-74
2022/03/25 02:26:30;;;;;;;63.95;39.45;;;5.30;99.90;;;;;;5018431;28;20210;-74
2022/03/25 02:28:59;;;;;;;61.03;39.70;;;5.30;99.90;;;;;;5018016;28;20644;-74
2022/03/25 02:31:28;;;;;;;65.18;40.17;;;5.30;99.90;;;;;;5017838;28;20251;-74
2022/03/25 02:33:57;;;;;;;70.20;41.65;;;5.20;99.90;;;;;;5018373;28;20202;-74
2022/03/25 02:36:25;;;;;;;65.75;39.47;;;5.20;99.90;;;;;;5018469;28;20479;-74
2022/03/25 02:38:54;;;;;;;66.57;38.47;;;5.20;99.90;;;;;;5018631;28;20202;-74
2022/03/25 02:41:22;;;;;;;68.88;39.60;;;5.20;99.90;;;;;;5018175;28;20223;-73
2022/03/25 02:43:50;;;;;;;71.45;41.40;;;5.20;99.90;;;;;;5017633;28;20301;-73
2022/03/25 02:46:18;;;;;;;61.42;38.90;;;5.20;99.90;;;;;;5018261;28;20212;-74
2022/03/25 02:48:46;;;;;;;65.63;39.60;;;5.10;99.90;;;;;;5018055;28;20198;-72
2022/03/25 02:51:14;;;;;;;71.07;40.85;;;5.10;99.90;;;;;;5018008;28;20236;-74
2022/03/25 02:53:42;;;;;;;67.97;42.22;;;5.10;99.90;;;;;;5018359;28;20323;-72
2022/03/25 02:56:12;;;;;;;67.50;39.50;;;5.10;99.90;;;;;;5017784;28;20420;-72
2022/03/25 02:58:40;;;;;;;70.32;40.72;;;5.10;99.90;;;;;;5017434;28;20756;-73
2022/03/25 03:01:08;;;;;;;71.38;41.85;;;5.10;99.90;;;;;;5018091;28;20465;-72
2022/03/25 03:03:36;;;;;;;67.85;39.47;;;5.00;99.90;;;;;;5021947;28;20479;-72
2022/03/25 03:06:05;;;;;;;70.85;39.20;;;5.00;99.90;;;;;;5037459;28;20209;-74
2022/03/25 03:08:35;;;;;;;75.15;42.22;;;5.00;99.90;;;;;;5037418;28;20227;-74
2022/03/25 03:11:03;;;;;;;71.38;41.60;;;5.00;99.90;;;;;;5037592;28;20485;-75
2022/03/25 03:13:33;;;;;;;63.70;38.53;;;5.00;99.90;;;;;;5026882;28;20210;-74
2022/03/25 03:16:01;;;;;;;67.78;41.08;;;5.00;99.90;;;;;;5017821;28;20676;-72
2022/03/25 03:18:29;;;;;;;66.72;39.75;;;5.00;99.90;;;;;;5017796;28;20199;-74
2022/03/25 03:20:58;;;;;;;65.13;40.08;;;4.90;99.90;;;;;;5017657;28;20784;-76
2022/03/25 03:23:26;;;;;;;72.07;41.13;;;4.90;99.90;;;;;;5021811;28;20225;-76
2022/03/25 03:25:54;;;;;;;64.40;38.15;;;4.90;99.90;;;;;;5037134;28;20220;-76
2022/03/25 03:28:22;;;;;;;68.38;40.83;;;4.90;99.90;;;;;;5037416;28;20208;-76
2022/03/25 03:30:51;;;;;;;63.03;39.80;;;4.90;99.90;;;;;;5037610;28;20225;-76
2022/03/25 03:33:19;;;;;;;58.13;37.35;;;4.90;99.90;;;;;;5031841;28;20204;-71
2022/03/25 03:35:47;;;;;;;69.95;39.55;;;4.90;99.90;;;;;;5026423;28;20436;-72
2022/03/25 03:38:15;;;;;;;67.88;39.60;;;4.90;99.90;;;;;;5017388;28;20839;-71
2022/03/25 03:40:43;;;;;;;63.00;37.22;;;5.00;99.90;;;;;;5033282;28;20218;-73
2022/03/25 03:43:11;;;;;;;59.33;37.85;;;5.00;99.90;;;;;;5028632;28;20264;-71
2022/03/25 03:45:38;;;;;;;63.58;39.25;;;5.00;99.90;;;;;;5037053;28;20682;-70
2022/03/25 03:48:08;;;;;;;70.45;40.42;;;5.00;99.90;;;;;;5028643;28;20202;-71
2022/03/25 03:50:35;;;;;;;75.43;41.38;;;5.10;99.90;;;;;;5031538;28;20221;-72
2022/03/25 03:53:03;;;;;;;65.35;41.13;;;5.00;99.90;;;;;;5031121;28;20803;-71
2022/03/25 03:55:32;;;;;;;59.22;37.22;;;5.00;99.90;;;;;;5033471;28;20405;-70
2022/03/25 03:58:00;;;;;;;65.65;41.70;;;5.10;99.90;;;;;;5036172;28;20521;-71
2022/03/25 04:00:27;;;;;;;71.45;41.53;;;5.00;99.90;;;;;;5025462;28;20471;-70
2022/03/25 04:02:55;;;;;;;68.35;39.03;;;5.00;99.90;;;;;;5032906;28;20419;-70
2022/03/25 04:05:25;;;;;;;69.55;40.45;;;5.00;99.90;;;;;;5031636;28;20236;-70
2022/03/25 04:07:53;;;;;;;61.05;37.63;;;5.00;99.90;;;;;;5036688;28;20202;-73
2022/03/25 04:10:21;;;;;;;68.55;42.45;;;5.00;99.90;;;;;;5022505;28;20846;-72
2022/03/25 04:12:49;;;;;;;64.03;38.47;;;4.90;99.90;;;;;;5031320;28;20260;-72
2022/03/25 04:15:17;;;;;;;60.45;37.28;;;4.80;99.90;;;;;;5025118;28;20599;-72
2022/03/25 04:17:45;;;;;;;63.00;41.05;;;4.70;99.90;;;;;;5038528;28;20202;-72
2022/03/25 04:20:15;;;;;;;67.30;40.10;;;4.70;99.90;;;;;;5024646;28;20230;-72
2022/03/25 04:22:45;;;;;;;68.80;39.92;;;4.70;99.90;;;;;;5028751;28;20236;-72
2022/03/25 04:25:14;;;;;;;69.00;40.25;;;4.70;99.90;;;;;;5039832;28;20276;-72
2022/03/25 04:27:53;;;;;;;63.17;41.03;;;4.60;99.90;;;;;;5020840;28;20287;-72
2022/03/25 04:30:25;;;;;;;68.50;41.72;;;4.70;99.90;;;;;;5020049;28;20222;-72
2022/03/25 04:32:54;;;;;;;79.63;42.80;;;4.60;99.90;;;;;;5020492;28;20183;-72
2022/03/25 04:35:23;;;;;;;68.50;40.53;;;4.60;99.90;;;;;;5020046;28;20543;-72
2022/03/25 04:37:53;;;;;;;66.28;38.95;;;4.60;99.90;;;;;;5023063;28;20216;-72
2022/03/25 04:40:23;;;;;;;71.18;42.70;;;4.60;99.90;;;;;;5037156;28;20253;-72
2022/03/25 04:42:52;;;;;;;67.60;43.00;;;4.60;99.90;;;;;;5027973;28;20230;-72
2022/03/25 04:45:21;;;;;;;76.95;43.05;;;4.50;99.90;;;;;;5031263;28;20592;-72
2022/03/25 04:47:49;;;;;;;63.33;39.05;;;4.50;99.90;;;;;;5040530;28;20231;-72
2022/03/25 04:50:18;;;;;;;65.88;38.75;;;4.50;99.90;;;;;;5040017;28;20218;-71
2022/03/25 04:52:46;;;;;;;65.80;40.30;;;4.50;99.90;;;;;;5040033;28;20223;-72
2022/03/25 04:55:18;;;;;;;73.65;41.38;;;4.50;99.90;;;;;;5033918;28;20265;-72
2022/03/25 04:57:46;;;;;;;68.47;42.58;;;4.50;99.90;;;;;;5019843;28;20209;-72
2022/03/25 05:00:15;;;;;;;72.20;39.92;;;4.50;99.90;;;;;;5019767;28;20226;-72
2022/03/25 05:02:43;;;;;;;65.15;41.00;;;4.50;99.90;;;;;;5019556;28;20381;-72
2022/03/25 05:05:13;;;;;;;70.78;42.90;;;4.50;99.90;;;;;;5019520;28;20301;-72
2022/03/25 05:07:42;;;;;;;75.63;42.10;;;4.40;99.90;;;;;;5019258;28;20623;-72
2022/03/25 05:10:11;;;;;;;69.30;39.30;;;4.40;99.90;;;;;;5037541;28;20229;-74
2022/03/25 05:12:41;;;;;;;74.80;42.22;;;4.40;99.90;;;;;;5039470;28;20301;-73
2022/03/25 05:15:10;;;;;;;70.43;40.53;;;4.40;99.90;;;;;;5039252;28;20208;-74
2022/03/25 05:17:44;;;;;;;67.68;39.72;;;4.40;99.90;;;;;;5039472;28;20198;-73
2022/03/25 05:20:13;;;;;;;66.43;41.13;;;4.40;99.90;;;;;;5039535;28;20228;-73
2022/03/25 05:22:41;;;;;;;72.00;40.83;;;4.40;99.90;;;;;;5039032;28;20308;-73
2022/03/25 05:25:10;;;;;;;71.32;42.03;;;4.40;99.90;;;;;;5039453;28;20687;-73
2022/03/25 05:27:48;;;;;;;72.55;41.95;;;4.40;99.90;;;;;;5039204;28;20681;-73
2022/03/25 05:30:16;;;;;;;65.97;38.60;;;4.40;99.90;;;;;;5039762;28;20218;-73
2022/03/25 05:32:44;;;;;;;68.78;39.80;;;4.40;99.90;;;;;;5041944;28;20209;-75
2022/03/25 05:35:21;;;;;;;71.07;41.40;;;4.40;99.90;;;;;;5040368;28;20439;-76
2022/03/25 05:37:49;;;;;;;78.97;41.22;;;4.50;99.90;;;;;;5033485;28;20305;-73
2022/03/25 05:40:19;;;;;;;67.18;39.42;;;4.50;99.90;;;;;;5019412;28;20265;-75
2022/03/25 05:42:49;;;;;;;68.75;39.63;;;4.50;99.90;;;;;;5019583;28;22214;-74
2022/03/25 05:45:18;;;;;;;74.00;41.97;;;4.50;99.90;;;;;;5019658;28;20214;-75
2022/03/25 05:47:47;;;;;;;76.70;44.72;;;4.60;99.90;;;;;;5020288;28;20186;-75
2022/03/25 05:50:16;;;;;;;72.25;40.03;;;4.60;99.90;;;;;;5020416;28;20218;-74
2022/03/25 05:52:44;;;;;;;62.33;37.00;;;4.60;99.90;;;;;;5019555;28;20202;-74
2022/03/25 05:55:13;;;;;;;72.13;39.95;;;4.70;99.90;;;;;;5020140;28;20203;-75
2022/03/25 05:57:42;;;;;;;70.35;38.67;;;4.70;99.90;;;;;;5020703;28;20236;-75
2022/03/25 06:00:14;;;;;;;68.47;39.85;;;4.80;99.90;;;;;;5020516;28;20305;-74
2022/03/25 06:02:43;;;;;;;71.20;41.63;;;4.90;99.90;;;;;;5019477;28;20280;-71
2022/03/25 06:05:12;;;;;;;78.35;44.15;;;5.00;99.90;;;;;;5020043;28;20609;-71
2022/03/25 06:07:40;;;;;;;84.05;43.88;;;5.10;99.90;;;;;;5022545;28;20666;-73
2022/03/25 06:10:42;;;;;;;83.40;45.38;;;5.20;99.90;;;;;;5024679;28;20945;-71
2022/03/25 06:13:10;;;;;;;74.75;40.40;;;5.30;99.90;;;;;;5036010;28;20259;-72
2022/03/25 06:15:44;;;;;;;72.40;43.08;;;5.40;99.90;;;;;;5050426;28;20244;-73
2022/03/25 06:18:12;;;;;;;74.10;42.10;;;5.50;99.90;;;;;;5037084;28;20297;-73
2022/03/25 06:20:40;;;;;;;72.57;40.53;;;5.50;99.90;;;;;;5035178;28;20597;-73
2022/03/25 06:23:08;;;;;;;86.93;46.95;;;5.60;99.90;;;;;;5030869;28;21068;-72
2022/03/25 06:25:36;;;;;;;69.15;43.20;;;5.70;99.90;;;;;;5029183;28;20201;-71
2022/03/25 06:28:06;;;;;;;81.57;46.55;;;5.70;99.90;;;;;;5028482;28;20546;-71
2022/03/25 06:30:36;;;;;;;84.05;46.03;;;5.90;99.90;;;;;;5020436;28;20309;-72
2022/03/25 06:33:09;;;;;;;81.88;45.75;;;6.00;99.90;;;;;;5022928;28;20486;-81
2022/03/25 06:35:38;;;;;;;82.05;45.67;;;6.00;99.90;;;;;;5027587;28;20696;-74
2022/03/25 06:38:07;;;;;;;83.05;46.65;;;6.10;99.90;;;;;;5024017;28;20202;-73
2022/03/25 06:40:35;;;;;;;83.57;47.53;;;6.20;99.90;;;;;;5034021;28;20233;-73
2022/03/25 06:43:04;;;;;;;83.90;48.90;;;6.20;99.90;;;;;;5021564;28;20197;-73
2022/03/25 06:45:33;;;;;;;77.38;46.35;;;6.30;99.90;;;;;;5029309;28;20300;-73
2022/03/25 06:48:01;;;;;;;89.57;49.90;;;6.30;99.90;;;;;;5018418;28;20609;-73
2022/03/25 06:50:33;;;;;;;88.15;50.85;;;6.40;99.90;;;;;;5018789;28;20622;-73
2022/03/25 06:53:02;;;;;;;76.70;43.97;;;6.50;99.90;;;;;;5020176;28;20296;-73
2022/03/25 06:55:31;;;;;;;85.85;50.78;;;6.60;99.90;;;;;;5027925;28;20237;-73
2022/03/25 06:58:00;;;;;;;81.10;49.63;;;6.70;99.90;;;;;;5041036;28;20458;-75
2022/03/25 07:00:28;;;;;;;80.18;47.03;;;6.70;99.90;;;;;;5039483;28;20231;-73
2022/03/25 07:02:57;;;;;;;86.97;48.85;;;6.80;99.90;;;;;;5025969;28;20217;-74
2022/03/25 07:05:26;;;;;;;88.05;49.88;;;6.90;99.90;;;;;;5032984;28;20222;-73
2022/03/25 07:07:56;;;;;;;87.88;49.58;;;6.90;99.90;;;;;;5034092;28;20219;-72
2022/03/25 07:10:26;;;;;;;90.15;49.05;;;7.00;99.90;;;;;;5038217;28;20264;-72
2022/03/25 07:12:55;;;;;;;83.13;49.65;;;7.10;99.90;;;;;;5037540;28;20781;-73
2022/03/25 07:15:24;;;;;;;84.07;48.33;;;7.20;99.90;;;;;;5029993;28;20490;-77
2022/03/25 07:17:53;;;;;;;81.05;47.05;;;7.30;99.90;;;;;;5019018;28;20202;-74
2022/03/25 07:20:23;;;;;;;85.82;50.05;;;7.40;99.90;;;;;;5042528;28;20232;-70
2022/03/25 07:22:52;;;;;;;84.53;48.95;;;7.50;99.90;;;;;;5042490;28;20201;-71
2022/03/25 07:25:22;;;;;;;92.00;51.13;;;7.60;99.90;;;;;;5042129;28;20247;-71
2022/03/25 07:27:50;;;;;;;91.03;50.60;;;7.70;99.90;;;;;;5036467;28;20212;-71
2022/03/25 07:30:18;;;;;;;97.28;53.00;;;7.80;99.90;;;;;;5034332;28;20222;-69
2022/03/25 07:32:47;;;;;;;80.47;47.90;;;7.80;99.90;;;;;;5031052;28;20733;-70
2022/03/25 07:35:16;;;;;;;84.28;49.42;;;7.90;99.90;;;;;;5031509;28;20657;-68
2022/03/25 07:37:45;;;;;;;89.80;48.42;;;8.00;99.90;;;;;;5027292;28;20198;-69
2022/03/25 07:40:15;;;;;;;88.72;51.22;;;8.10;99.90;;;;;;5026465;28;20480;-71
2022/03/25 07:42:46;;;;;;;85.03;50.30;;;8.30;99.90;;;;;;5028138;28;20230;-70
2022/03/25 07:45:15;;;;;;;91.60;53.80;;;8.40;99.90;;;;;;5034058;28;20229;-70
2022/03/25 07:47:43;;;;;;;93.95;52.40;;;8.40;99.90;;;;;;5025049;28;20238;-69
2022/03/25 07:50:12;;;;;;;83.88;52.33;;;8.50;99.90;;;;;;5027026;28;20404;-70
2022/03/25 07:52:41;;;;;;;90.57;50.45;;;8.60;99.90;;;;;;5039426;28;20202;-70
2022/03/25 07:55:10;;;;;;;88.70;53.25;;;8.70;99.90;;;;;;5026171;28;20689;-71
2022/03/25 07:57:38;;;;;;;84.10;51.22;;;8.80;99.90;;;;;;5021674;28;20632;-70
2022/03/25 08:00:11;;;;;;;86.43;50.70;;;8.90;99.90;;;;;;5023156;28;20294;-70
2022/03/25 08:02:40;;;;;;;92.05;53.53;;;9.00;99.90;;;;;;5021832;28;20210;-71
2022/03/25 08:05:10;;;;;;;83.18;50.72;;;9.10;99.90;;;;;;5034933;28;20439;-70
2022/03/25 08:07:45;;;;;;;86.88;51.85;;;9.20;99.90;;;;;;5040387;28;20248;-70
2022/03/25 08:10:13;;;;;;;86.28;52.70;;;9.40;99.90;;;;;;5040409;28;20229;-71
2022/03/25 08:12:41;;;;;;;85.70;48.65;;;9.40;99.90;;;;;;5032299;28;20213;-70
2022/03/25 08:15:11;;;;;;;77.55;46.97;;;9.50;99.90;;;;;;5040909;28;20276;-70
2022/03/25 08:17:46;;;;;;;90.53;50.72;;;9.70;99.90;;;;;;5028060;28;20380;-70
2022/03/25 08:20:14;;;;;;;82.45;47.40;;;9.80;99.90;;;;;;5023052;28;20308;-68
2022/03/25 08:22:42;;;;;;;67.28;46.10;;;9.90;99.90;;;;;;5031564;28;20230;-70
2022/03/25 08:28:00;;;;;;;81.78;48.08;;;10.10;99.90;;;;;;5024368;28;20233;-69
2022/03/25 08:30:30;;;;;;;79.88;46.10;;;10.20;99.90;;;;;;5041109;28;20251;-76
2022/03/25 08:32:58;;;;;;;80.53;48.60;;;10.30;99.90;;;;;;5028740;28;20666;-71
2022/03/25 08:35:27;;;;;;;65.78;42.83;;;10.40;99.90;;;;;;5045306;22;20854;-87
2022/03/25 08:37:56;;;;;;;66.05;41.33;;;10.60;99.90;;;;;;5027319;28;20290;-88
2022/03/25 08:40:26;;;;;;;65.93;36.95;;;10.70;99.90;;;;;;5032342;28;20859;-87
2022/03/25 08:42:55;;;;;;;58.78;39.42;;;10.80;99.90;;;;;;5034075;28;20314;-87
2022/03/25 08:45:23;;;;;;;61.42;39.35;;;10.90;99.90;;;;;;5042824;28;20223;-88
2022/03/25 08:47:52;;;;;;;60.70;39.08;;;11.00;99.90;;;;;;5042059;28;20195;-87
2022/03/25 08:50:22;;;;;;;59.15;38.40;;;11.10;99.90;;;;;;5040118;28;20415;-88
2022/03/25 08:52:52;;;;;;;66.22;37.65;;;11.10;99.90;;;;;;5043301;28;20756;-87
2022/03/25 08:55:21;;;;;;;59.10;37.45;;;11.20;99.90;;;;;;4999616;28;20242;-89
2022/03/25 08:57:49;;;;;;;63.38;38.38;;;11.20;99.90;;;;;;5008687;28;20329;-87
2022/03/25 09:00:19;;;;;;;66.00;39.95;;;11.30;99.90;;;;;;5012410;28;20227;-87
2022/03/25 09:02:48;;;;;;;65.67;39.63;;;11.30;99.90;;;;;;5010689;28;20624;-86
2022/03/25 09:05:19;;;;;;;56.43;36.93;;;11.30;99.90;;;;;;5012196;28;20486;-86
2022/03/25 09:07:47;;;;;;;55.60;36.50;;;11.30;99.90;;;;;;5012317;28;20481;-85
2022/03/25 09:10:16;;;;;;;62.33;37.80;;;11.30;99.90;;;;;;5020295;28;20500;-86
2022/03/25 09:12:45;;;;;;;58.90;36.40;;;11.40;99.90;;;;;;5012151;28;20458;-86
2022/03/25 09:15:15;;;;;;;54.13;36.10;;;11.50;99.90;;;;;;5007401;28;20923;-85
2022/03/25 09:17:44;;;;;;;51.43;34.13;;;11.60;99.90;;;;;;5009465;28;21077;-86
2022/03/25 09:20:14;;;;;;;55.83;37.23;;;11.70;99.90;;;;;;5016955;28;20512;-85
2022/03/25 09:22:44;;;;;;;63.27;38.17;;;11.80;99.90;;;;;;5015103;28;20506;-86
2022/03/25 09:25:13;;;;;;;52.50;35.47;;;11.80;99.90;;;;;;5018501;28;20532;-86
2022/03/25 09:27:42;;;;;;;54.80;34.13;;;11.90;99.90;;;;;;5017946;28;21148;-85
2022/03/25 09:30:11;;;;;;;56.17;36.73;;;12.00;99.90;;;;;;5013679;28;20469;-87
2022/03/25 09:32:59;;;;;;;54.93;35.70;;;12.20;99.90;;;;;;5010867;28;20449;-82
2022/03/25 09:35:33;;;;;;;60.50;34.70;;;12.30;99.90;;;;;;4993790;28;20461;-85
2022/03/25 09:38:03;;;;;;;56.90;35.00;;;12.40;99.90;;;;;;5002356;28;20529;-86
2022/03/25 09:40:31;;;;;;;57.53;34.53;;;12.40;99.90;;;;;;5011042;28;20532;-86
2022/03/25 09:42:59;;;;;;;58.70;37.73;;;12.50;99.90;;;;;;5010620;28;20445;-87
2022/03/25 09:45:30;;;;;;;51.73;35.53;;;12.60;99.90;;;;;;5011129;28;20500;-86
2022/03/25 09:47:58;;;;;;;50.43;34.30;;;12.70;99.90;;;;;;5005950;28;20462;-85
2022/03/25 09:50:29;;;;;;;50.03;34.10;;;12.80;99.90;;;;;;4990526;28;20537;-85
2022/03/25 09:52:57;;;;;;;50.87;33.90;;;12.90;99.90;;;;;;4990793;28;20956;-85
2022/03/25 09:55:40;;;;;;;47.70;32.90;;;13.00;99.90;;;;;;4991448;28;20944;-84
2022/03/25 09:58:10;;;;;;;51.43;32.13;;;13.10;99.90;;;;;;4989899;28;20458;-86
2022/03/25 10:00:39;;;;;;;44.23;29.27;;;13.20;99.90;;;;;;4990728;28;20494;-85
2022/03/25 10:03:09;;;;;;;49.30;32.07;;;13.30;99.90;;;;;;5009243;28;20478;-84
2022/03/25 10:05:55;;;;;;;49.33;33.97;;;13.30;99.90;;;;;;5009855;28;20465;-85
2022/03/25 10:08:35;;;;;;;52.60;30.93;;;13.50;99.90;;;;;;5010055;28;20458;-86
2022/03/25 10:11:24;;;;;;;48.00;33.00;;;13.60;99.90;;;;;;5013687;28;20479;-84
2022/03/25 10:14:19;;;;;;;58.40;33.30;;;13.60;99.90;;;;;;5021205;28;20426;-86
2022/03/25 10:16:49;;;;;;;48.20;31.37;;;13.70;99.90;;;;;;5003605;28;20439;-88
2022/03/25 10:19:22;;;;;;;49.60;32.07;;;13.80;99.90;;;;;;5007167;28;20951;-85
2022/03/25 10:21:54;;;;;;;49.97;34.40;;;13.90;99.90;;;;;;5000014;28;20840;-86
2022/03/25 10:24:39;;;;;;;50.73;32.17;;;13.90;99.90;;;;;;5004505;28;20434;-87
2022/03/25 10:27:21;;;;;;;52.20;33.93;;;14.00;99.90;;;;;;5005380;28;20687;-87
2022/03/25 10:29:50;;;;;;;48.60;34.67;;;14.00;99.90;;;;;;5005550;28;20698;-86
2022/03/25 10:32:23;;;;;;;49.80;35.37;;;14.10;99.90;;;;;;5005373;28;20438;-87
2022/03/25 10:35:04;;;;;;;52.67;34.93;;;14.20;99.90;;;;;;5004521;28;20453;-85
2022/03/25 10:37:32;;;;;;;40.73;29.40;;;14.20;99.90;;;;;;5003497;28;20563;-87
2022/03/25 10:40:00;;;;;;;53.20;30.50;;;14.20;99.90;;;;;;5004718;28;20468;-86
2022/03/25 10:42:36;;;;;;;49.17;33.17;;;14.30;99.90;;;;;;5007120;28;20489;-87
2022/03/25 10:45:25;;;;;;;45.90;30.57;;;14.40;99.90;;;;;;5002257;28;20450;-86
2022/03/25 10:48:14;;;;;;;43.20;28.77;;;14.50;99.90;;;;;;5004214;28;20468;-85
2022/03/25 10:50:56;;;;;;;43.07;29.20;;;14.60;99.90;;;;;;5005950;28;20453;-87
2022/03/25 10:53:26;;;;;;;41.37;28.07;;;14.60;99.90;;;;;;5006850;28;20446;-86
2022/03/25 10:56:06;;;;;;;42.70;27.77;;;14.70;99.90;;;;;;5005685;28;20794;-85
2022/03/25 10:58:37;;;;;;;40.33;27.00;;;14.70;99.90;;;;;;5004442;28;20438;-87
2022/03/25 11:01:12;;;;;;;39.50;27.50;;;14.80;99.90;;;;;;5006236;28;20466;-86
2022/03/25 11:03:52;;;;;;;40.00;28.67;;;14.80;99.90;;;;;;5005513;28;20919;-88
2022/03/25 11:06:20;;;;;;;44.53;26.97;;;14.90;99.90;;;;;;5004417;28;20478;-86
2022/03/25 11:08:52;;;;;;;41.33;27.17;;;15.00;99.90;;;;;;5004119;28;20524;-87
2022/03/25 11:11:22;;;;;;;37.67;25.40;;;15.00;99.90;;;;;;5002284;28;20832;-86
2022/03/25 11:13:54;;;;;;;39.13;28.50;;;15.10;99.90;;;;;;5005483;28;20446;-86
2022/03/25 11:16:22;;;;;;;45.33;28.43;;;15.10;99.90;;;;;;5009676;28;20450;-84
2022/03/25 11:18:53;;;;;;;53.00;29.00;;;15.20;99.90;;;;;;5019541;28;20745;-89
2022/03/25 11:21:26;;;;;;;39.63;26.80;;;15.20;99.90;;;;;;5009545;28;20635;-88
2022/03/25 11:23:57;;;;;;;41.63;27.93;;;15.30;99.90;;;;;;5004307;28;20807;-85
2022/03/25 11:26:27;;;;;;;36.90;26.03;;;15.40;99.90;;;;;;5005790;28;20752;-88
2022/03/25 11:29:01;;;;;;;41.93;27.93;;;15.50;99.90;;;;;;5007589;28;20468;-86
2022/03/25 11:31:28;;;;;;;35.27;25.17;;;15.50;99.90;;;;;;5006301;28;21042;-86
2022/03/25 11:34:11;;;;;;;38.10;26.27;;;15.50;99.90;;;;;;5006747;28;20809;-84
2022/03/25 11:36:43;;;;;;;40.10;25.60;;;15.60;99.90;;;;;;5006750;28;20493;-87
2022/03/25 11:39:22;;;;;;;37.67;25.80;;;15.60;99.90;;;;;;5009564;28;20532;-86
2022/03/25 11:41:54;;;;;;;36.57;24.83;;;15.70;99.90;;;;;;5004555;28;20520;-86
2022/03/25 11:44:27;;;;;;;32.60;21.57;;;15.70;99.90;;;;;;5006944;28;21105;-86
2022/03/25 11:47:14;;;;;;;27.83;21.37;;;15.80;99.90;;;;;;5007772;28;20470;-87
2022/03/25 11:49:43;;;;;;;29.03;20.43;;;15.80;99.90;;;;;;5005813;28;20474;-85
2022/03/25 11:52:29;;;;;;;40.47;22.80;;;15.90;99.90;;;;;;5005095;28;20982;-85
2022/03/25 11:54:59;;;;;;;28.13;18.77;;;15.90;99.80;;;;;;5003403;28;20438;-85
2022/03/25 11:57:29;;;;;;;32.30;20.80;;;16.00;99.20;;;;;;5003223;28;21055;-87
2022/03/25 12:00:00;;;;;;;35.60;20.47;;;16.10;98.90;;;;;;5004259;28;21199;-85
2022/03/25 12:02:32;;;;;;;26.53;19.00;;;16.10;98.30;;;;;;5005430;28;20486;-86
2022/03/25 12:05:01;;;;;;;29.60;19.00;;;16.10;98.50;;;;;;5007355;28;20486;-83
2022/03/25 12:07:33;;;;;;;26.17;19.27;;;16.10;98.50;;;;;;5012235;28;20508;-84
2022/03/25 12:10:03;;;;;;;31.70;19.80;;;16.10;98.50;;;;;;5007397;28;20469;-83
2022/03/25 12:12:54;;;;;;;28.20;19.73;;;16.10;98.20;;;;;;5011186;28;20947;-85
2022/03/25 12:15:44;;;;;;;29.33;19.90;;;16.20;98.00;;;;;;5016384;28;20474;-85
2022/03/25 12:18:40;;;;;;;30.80;20.77;;;16.20;98.30;;;;;;5005605;28;20424;-84
2022/03/25 12:21:13;;;;;;;31.37;21.30;;;16.20;98.20;;;;;;4975456;28;20449;-85
2022/03/25 12:23:41;;;;;;;27.37;20.37;;;16.30;97.90;;;;;;5014175;28;20446;-85
2022/03/25 12:26:11;;;;;;;30.40;20.63;;;16.30;98.00;;;;;;5012503;28;20438;-85
2022/03/25 12:28:42;;;;;;;26.07;18.33;;;16.30;98.40;;;;;;5013438;28;20450;-83
2022/03/25 12:31:15;;;;;;;28.57;19.80;;;16.30;99.10;;;;;;5013719;28;20445;-83
2022/03/25 12:33:56;;;;;;;33.10;19.57;;;16.40;98.10;;;;;;5014264;28;20415;-86
2022/03/25 12:36:32;;;;;;;36.20;20.83;;;16.50;98.40;;;;;;5013087;28;20715;-85
2022/03/25 12:39:00;;;;;;;27.67;19.33;;;16.60;98.40;;;;;;5003251;28;20463;-84
2022/03/25 12:41:30;;;;;;;29.80;21.60;;;16.70;98.40;;;;;;4993416;28;20530;-83
2022/03/25 12:44:26;;;;;;;38.57;22.17;;;16.70;97.70;;;;;;4993036;28;20500;-84
2022/03/25 12:46:58;;;;;;;30.97;20.87;;;16.70;97.90;;;;;;4995478;28;20478;-85
2022/03/25 12:49:26;;;;;;;31.30;20.57;;;16.70;97.80;;;;;;4992868;28;20510;-84
2022/03/25 12:51:58;;;;;;;28.20;19.40;;;16.60;97.80;;;;;;4993189;28;20447;-86